Impacts TAF Board
For situational awareness. Not to be used for flight planning purposes.
IDs:

KMEM - Memphis Intl, TN, US

Issued at 2329 UTC 19 Jul 2019
Updated at 0050 UTC 20 Jul 2019
Potential Impact None Slight Moderate High
Time<<20/13Z 20/14Z 20/15Z 20/16Z 20/17Z 20/18Z 20/19Z 20/20Z 20/21Z 20/22Z 20/23Z 21/00Z 21/01Z>>
Type PRVL PRVL PRVL PRVL PRVL PRVL PRVL PRVL PRVL PRVL PRVL PRVL PRVL
VIS >6 >6 >6 >6 >6 >6 >6 >6 >6 >6 >6 >6 >6
CIG -- 250 250 250 250 250 250 250 250 250 250 250 250
Cover SCT BKN BKN BKN BKN OVC OVC OVC OVC OVC OVC OVC OVC
FltCat VFR VFR VFR VFR VFR VFR VFR VFR VFR VFR VFR VFR VFR
WX -- -- -- -- -- -- -- -- -- -- -- -- --
WDir 200 240 240 240 240 230 230 230 230 230 230 230 230
WSpd 10 6 6 6 6 7 7 7 7 7 7 7 7
WGst -- -- -- -- -- -- -- -- -- -- -- -- --
Raw TAF
KMEM 192329Z 2000/2106 20010KT P6SM SCT040 SCT250
  FM201400 24006KT P6SM SCT025 BKN250
  FM201800 23007KT P6SM OVC250


METAR Board
Radar Display
Forecast Discussion
For situational awareness. Not to be used for flight planning purposes.